Time;durP1;ratioP1;P1;durP2;ratioP2;P2;SDS_P1;SDS_P2;PMS_P1;PMS_P2;Temp;Humidity;BMP_temperature;BMP_pressure;BME280_temperature;BME280_humidity;BME280_pressure;Samples;Min_cycle;Max_cycle;Signal;HPM_P1;HPM_P2
2022/01/13 00:02:03;;;;;;;24.15;15.75;;;1.70;99.90;;;;;;5090729;28;20129;-52
2022/01/13 00:04:28;;;;;;;28.88;17.83;;;1.70;99.90;;;;;;5096013;28;20464;-49
2022/01/13 00:06:54;;;;;;;31.38;18.48;;;1.80;99.90;;;;;;5104911;28;20042;-53
2022/01/13 00:09:21;;;;;;;27.20;17.45;;;1.80;99.90;;;;;;5109049;28;20031;-52
2022/01/13 00:11:48;;;;;;;37.35;19.20;;;1.90;99.90;;;;;;5095066;28;20399;-50
2022/01/13 00:17:10;;;;;;;34.88;19.60;;;2.00;99.90;;;;;;5091531;28;20028;-51
2022/01/13 00:24:28;;;;;;;32.58;18.27;;;2.10;99.90;;;;;;5091500;28;20055;-54
2022/01/13 00:26:55;;;;;;;33.38;17.25;;;2.10;99.90;;;;;;5091001;28;20028;-54
2022/01/13 00:29:27;;;;;;;28.23;16.90;;;2.10;99.90;;;;;;5090905;28;20081;-51
2022/01/13 00:31:53;;;;;;;28.38;16.08;;;2.10;99.90;;;;;;5090915;28;20062;-51
2022/01/13 00:34:18;;;;;;;27.52;16.02;;;2.00;99.90;;;;;;5091192;28;20079;-50
2022/01/13 00:36:44;;;;;;;33.67;18.15;;;2.00;99.90;;;;;;5075802;28;20020;-51
2022/01/13 00:39:11;;;;;;;29.90;17.50;;;2.10;99.90;;;;;;5094621;28;20028;-53
2022/01/13 00:41:38;;;;;;;27.63;17.42;;;2.10;99.90;;;;;;5094875;28;20039;-51
2022/01/13 00:44:06;;;;;;;26.83;16.65;;;2.20;99.90;;;;;;5095069;28;20028;-52
2022/01/13 00:46:41;;;;;;;31.98;17.30;;;2.20;99.90;;;;;;5076770;28;20028;-54
2022/01/13 00:49:08;;;;;;;28.40;17.33;;;2.20;99.90;;;;;;5095248;28;20032;-52
2022/01/13 00:51:34;;;;;;;28.38;16.17;;;2.30;99.90;;;;;;5094741;28;20039;-51
2022/01/13 00:54:04;;;;;;;29.50;17.40;;;2.30;99.90;;;;;;5076501;28;20016;-52
2022/01/13 00:56:31;;;;;;;28.63;15.95;;;2.30;99.90;;;;;;5094876;28;20044;-50
2022/01/13 00:58:57;;;;;;;21.70;14.65;;;2.40;99.90;;;;;;5094724;28;20016;-55
2022/01/13 01:01:22;;;;;;;25.20;14.70;;;2.40;99.90;;;;;;5094426;28;20518;-53
2022/01/13 01:03:48;;;;;;;27.77;17.35;;;2.40;99.90;;;;;;5094551;28;20494;-50
2022/01/13 01:06:14;;;;;;;24.75;16.35;;;2.40;99.90;;;;;;5094670;28;20089;-54
2022/01/13 01:08:40;;;;;;;23.52;15.75;;;2.40;99.90;;;;;;5076409;28;20039;-52
2022/01/13 01:11:06;;;;;;;28.88;17.30;;;2.40;99.90;;;;;;5095029;28;20479;-56
2022/01/13 01:13:35;;;;;;;26.42;15.43;;;2.40;99.90;;;;;;5077628;28;20028;-55
2022/01/13 01:16:05;;;;;;;21.38;15.43;;;2.50;99.90;;;;;;5095758;28;20476;-55
2022/01/13 01:19:00;;;;;;;25.88;16.38;;;2.60;99.90;;;;;;5095443;28;20127;-55
2022/01/13 01:21:36;;;;;;;26.63;15.48;;;2.50;99.90;;;;;;5094637;28;20036;-52
2022/01/13 01:26:56;;;;;;;23.13;15.07;;;2.50;99.90;;;;;;5093178;28;20016;-49
2022/01/13 01:29:42;;;;;;;26.67;14.30;;;2.50;99.90;;;;;;5094044;28;20020;-47
2022/01/13 01:32:11;;;;;;;;;;;2.50;99.90;;;;;;5094939;28;20096;-46
2022/01/13 01:34:56;;;;;;;117.95;64.32;;;2.40;99.90;;;;;;5076247;28;20000;-49
2022/01/13 01:37:26;;;;;;;47.05;27.45;;;2.40;99.90;;;;;;5094177;28;20058;-44
2022/01/13 01:39:53;;;;;;;26.88;16.15;;;2.50;99.90;;;;;;5094044;28;20066;-47
2022/01/13 01:42:20;;;;;;;23.23;15.18;;;2.50;99.90;;;;;;5094256;28;20088;-52
2022/01/13 01:44:48;;;;;;;25.00;16.60;;;2.50;99.90;;;;;;5076164;28;20514;-45
2022/01/13 01:47:16;;;;;;;25.75;15.90;;;2.50;99.90;;;;;;5093793;28;20024;-44
2022/01/13 01:49:45;;;;;;;29.60;17.52;;;2.50;99.90;;;;;;5093584;28;20399;-49
2022/01/13 01:52:15;;;;;;;25.75;16.48;;;2.50;99.90;;;;;;5093913;28;20051;-48
2022/01/13 01:54:41;;;;;;;26.88;16.13;;;2.60;99.90;;;;;;5093742;28;20032;-45
2022/01/13 01:57:07;;;;;;;24.88;16.70;;;2.60;99.90;;;;;;5093847;28;20141;-45
2022/01/13 01:59:36;;;;;;;23.88;14.85;;;2.60;99.90;;;;;;5093635;28;20041;-47
2022/01/13 02:02:02;;;;;;;26.25;16.52;;;2.60;99.90;;;;;;5075521;28;20036;-51
2022/01/13 02:04:28;;;;;;;27.17;14.63;;;2.70;99.90;;;;;;5075507;28;20411;-46
2022/01/13 02:06:56;;;;;;;26.25;15.95;;;2.70;99.90;;;;;;5093647;28;20514;-46
2022/01/13 02:09:23;;;;;;;28.15;16.88;;;2.70;99.90;;;;;;5093189;28;20039;-45
2022/01/13 02:11:56;;;;;;;29.80;17.77;;;2.70;99.90;;;;;;5093308;28;20028;-49
2022/01/13 02:16:51;;;;;;;27.60;17.13;;;2.70;99.90;;;;;;5093245;28;20020;-51
2022/01/13 02:19:17;;;;;;;36.33;18.48;;;2.70;99.90;;;;;;5092838;28;20032;-50
2022/01/13 02:21:43;;;;;;;29.88;18.80;;;2.70;99.90;;;;;;5075169;28;20115;-47
2022/01/13 02:24:09;;;;;;;31.08;18.33;;;2.70;99.90;;;;;;5092982;28;20197;-47
2022/01/13 02:26:36;;;;;;;34.92;19.38;;;2.70;99.90;;;;;;5092746;28;20043;-52
2022/01/13 02:29:02;;;;;;;29.45;19.27;;;2.70;99.90;;;;;;5093045;28;20024;-48
2022/01/13 02:31:28;;;;;;;36.80;20.17;;;2.70;99.90;;;;;;5092794;28;20027;-49
2022/01/13 02:33:54;;;;;;;32.90;20.38;;;2.70;99.90;;;;;;5093132;28;20099;-46
2022/01/13 02:36:22;;;;;;;35.50;20.20;;;2.70;99.90;;;;;;5092975;28;20475;-48
2022/01/13 02:38:53;;;;;;;30.65;18.65;;;2.70;99.90;;;;;;5092857;28;20016;-50
2022/01/13 02:41:22;;;;;;;28.95;19.05;;;2.80;99.90;;;;;;5090461;28;20016;-46
2022/01/13 02:43:49;;;;;;;28.75;18.23;;;2.80;99.90;;;;;;5092933;28;20475;-51
2022/01/13 02:46:56;;;;;;;29.98;18.40;;;2.80;99.90;;;;;;5092869;28;20039;-53
2022/01/13 02:49:17;;;;;;;24.88;16.88;;;2.80;99.90;;;;;;5091281;28;20031;-51
2022/01/13 02:51:46;;;;;;;34.03;18.85;;;2.90;99.90;;;;;;5074243;28;20483;-52
2022/01/13 02:54:11;;;;;;;29.48;18.60;;;2.90;99.90;;;;;;5074370;28;20027;-52
2022/01/13 02:56:37;;;;;;;34.17;20.13;;;2.90;99.90;;;;;;5092663;28;20095;-45
2022/01/13 02:59:05;;;;;;;31.85;18.20;;;2.90;99.90;;;;;;5091793;28;20024;-47
2022/01/13 03:01:31;;;;;;;29.63;19.02;;;2.90;99.90;;;;;;5092421;28;20537;-45
2022/01/13 03:03:58;;;;;;;30.05;18.63;;;2.90;99.90;;;;;;5092425;28;20028;-45
2022/01/13 03:06:38;;;;;;;33.95;18.95;;;2.90;99.90;;;;;;5092399;28;20048;-45
2022/01/13 03:09:11;;;;;;;31.85;18.35;;;3.00;99.90;;;;;;5092678;28;20024;-45
2022/01/13 03:11:38;;;;;;;28.33;17.95;;;2.90;99.90;;;;;;5092403;28;20023;-45
2022/01/13 03:14:10;;;;;;;31.98;19.45;;;2.90;99.90;;;;;;5092289;28;20020;-47
2022/01/13 03:16:36;;;;;;;29.90;19.52;;;2.80;99.90;;;;;;5092372;28;20020;-47
2022/01/13 03:19:02;;;;;;;33.30;19.13;;;2.80;99.90;;;;;;5092024;28;20036;-46
2022/01/13 03:21:27;;;;;;;30.50;20.42;;;2.80;99.90;;;;;;5073941;28;20127;-46
2022/01/13 03:23:53;;;;;;;34.15;21.65;;;2.80;99.90;;;;;;5092321;28;20119;-48
2022/01/13 03:26:22;;;;;;;33.28;19.48;;;2.80;99.90;;;;;;5092174;28;20028;-48
2022/01/13 03:28:54;;;;;;;35.10;20.27;;;2.90;99.90;;;;;;5092073;28;20028;-47
2022/01/13 03:31:23;;;;;;;32.45;20.92;;;2.90;99.90;;;;;;5091460;28;20031;-47
2022/01/13 03:33:50;;;;;;;30.23;20.42;;;2.90;99.90;;;;;;5092183;28;20016;-48
2022/01/13 03:36:17;;;;;;;39.95;20.70;;;3.00;99.90;;;;;;5092064;28;20012;-45
2022/01/13 03:38:42;;;;;;;30.00;20.10;;;2.90;99.90;;;;;;5092427;28;20518;-50
2022/01/13 03:41:08;;;;;;;34.47;20.77;;;2.90;99.90;;;;;;5091555;28;20107;-47
2022/01/13 03:43:36;;;;;;;35.95;21.50;;;2.90;99.90;;;;;;5091833;28;20108;-47
2022/01/13 03:46:02;;;;;;;32.67;21.35;;;2.90;99.90;;;;;;5091672;28;20035;-51
2022/01/13 03:48:27;;;;;;;32.00;21.05;;;2.90;99.90;;;;;;5091829;28;20040;-46
2022/01/13 03:50:53;;;;;;;37.22;21.95;;;2.90;99.90;;;;;;5091388;28;20570;-46
2022/01/13 03:53:24;;;;;;;34.35;21.67;;;2.90;99.90;;;;;;5091882;28;20452;-45
2022/01/13 03:56:40;;;;;;;36.28;21.20;;;2.90;99.90;;;;;;5091999;28;20024;-47
2022/01/13 03:59:39;;;;;;;35.33;21.30;;;2.90;99.90;;;;;;5091594;28;20024;-46
2022/01/13 04:02:05;;;;;;;38.75;23.40;;;2.90;99.90;;;;;;5091621;28;20024;-44
2022/01/13 04:04:34;;;;;;;34.67;21.77;;;2.90;99.90;;;;;;5091406;28;20430;-47
2022/01/13 04:07:15;;;;;;;37.05;22.23;;;2.90;99.90;;;;;;5073420;28;20546;-49
2022/01/13 04:09:40;;;;;;;32.90;22.17;;;2.90;99.90;;;;;;5092169;28;20032;-50
2022/01/13 04:12:10;;;;;;;34.85;20.92;;;2.90;99.90;;;;;;5095571;28;20055;-48
2022/01/13 04:14:45;;;;;;;34.50;22.00;;;3.00;99.90;;;;;;5095632;28;20027;-46
2022/01/13 04:17:17;;;;;;;34.08;20.77;;;2.90;99.90;;;;;;5095477;28;20012;-51
2022/01/13 04:19:43;;;;;;;34.10;20.65;;;2.90;99.90;;;;;;5095155;28;20063;-42
2022/01/13 04:22:10;;;;;;;29.73;20.73;;;2.90;99.90;;;;;;5095545;28;20023;-46
2022/01/13 04:24:37;;;;;;;34.38;21.42;;;2.90;99.90;;;;;;5095294;28;20043;-50
2022/01/13 04:27:03;;;;;;;33.00;21.20;;;3.00;99.90;;;;;;5095148;28;20103;-47
2022/01/13 04:29:41;;;;;;;35.60;21.77;;;2.90;99.90;;;;;;5095002;28;20514;-46
2022/01/13 04:32:07;;;;;;;33.08;21.42;;;2.90;99.90;;;;;;5095557;28;20421;-47
2022/01/13 04:34:34;;;;;;;30.67;21.30;;;2.90;99.90;;;;;;5095273;28;20487;-45
2022/01/13 04:37:01;;;;;;;33.75;22.65;;;2.90;99.90;;;;;;5095299;28;20024;-45
2022/01/13 04:39:28;;;;;;;32.97;21.55;;;2.90;99.90;;;;;;5094574;28;20455;-49
2022/01/13 04:41:54;;;;;;;37.38;20.98;;;2.90;99.90;;;;;;5095092;28;20024;-46
2022/01/13 04:44:22;;;;;;;30.52;20.48;;;2.90;99.90;;;;;;5076810;28;20020;-49
2022/01/13 04:46:49;;;;;;;39.42;23.52;;;2.90;99.90;;;;;;5095095;28;20399;-46
2022/01/13 04:49:16;;;;;;;34.05;21.83;;;3.00;99.90;;;;;;5076395;28;20036;-45
2022/01/13 04:51:42;;;;;;;30.67;19.92;;;3.00;99.90;;;;;;5094913;28;20027;-47
2022/01/13 04:54:08;;;;;;;33.97;22.08;;;2.90;99.90;;;;;;5094806;28;20077;-46
2022/01/13 04:59:15;;;;;;;30.88;20.10;;;3.10;99.90;;;;;;5094572;28;20016;-50
2022/01/13 05:01:40;;;;;;;31.58;21.98;;;3.00;99.90;;;;;;5094823;28;20403;-48
2022/01/13 05:04:07;;;;;;;37.17;23.30;;;3.10;99.90;;;;;;5094640;28;20024;-48
2022/01/13 05:06:33;;;;;;;36.58;23.23;;;3.00;99.90;;;;;;5076275;28;20024;-50
2022/01/13 05:08:58;;;;;;;38.28;22.88;;;3.00;99.90;;;;;;5094508;28;20024;-44
2022/01/13 05:11:24;;;;;;;37.17;22.33;;;3.10;99.90;;;;;;5076055;28;20506;-47
2022/01/13 05:13:50;;;;;;;35.42;22.80;;;3.10;99.90;;;;;;5094523;28;20035;-45
2022/01/13 05:16:24;;;;;;;36.28;22.95;;;3.00;99.90;;;;;;5094753;28;20027;-48
2022/01/13 05:18:57;;;;;;;35.20;22.33;;;3.10;99.90;;;;;;5094483;28;20020;-44
2022/01/13 05:21:26;;;;;;;30.70;21.08;;;3.00;99.90;;;;;;5093511;28;20020;-46
2022/01/13 05:23:53;;;;;;;37.10;21.92;;;3.00;99.90;;;;;;5094358;28;20028;-45
2022/01/13 05:26:20;;;;;;;34.10;21.90;;;3.00;99.90;;;;;;5094126;28;20024;-46
2022/01/13 05:28:46;;;;;;;39.17;23.60;;;3.10;99.90;;;;;;5094126;28;20085;-47
2022/01/13 05:31:12;;;;;;;37.05;23.77;;;3.10;99.90;;;;;;5093810;28;20107;-45
2022/01/13 05:33:38;;;;;;;39.45;22.92;;;3.10;99.90;;;;;;5094149;28;20024;-46
2022/01/13 05:36:04;;;;;;;42.28;24.75;;;3.00;99.90;;;;;;5095140;28;20026;-49
2022/01/13 05:38:29;;;;;;;35.78;23.00;;;3.00;99.90;;;;;;5094755;28;20496;-46
2022/01/13 05:40:58;;;;;;;36.10;23.85;;;3.00;99.90;;;;;;5094092;28;20035;-47
2022/01/13 05:43:23;;;;;;;40.53;23.50;;;3.00;99.90;;;;;;5094210;28;20487;-47
2022/01/13 05:45:49;;;;;;;41.65;25.05;;;3.00;99.90;;;;;;5093877;28;20043;-49
2022/01/13 05:48:14;;;;;;;41.15;23.50;;;3.00;99.90;;;;;;5093792;28;20028;-44
2022/01/13 05:50:40;;;;;;;40.92;23.55;;;2.90;99.90;;;;;;5076056;28;20081;-45
2022/01/13 05:53:06;;;;;;;36.58;23.30;;;2.90;99.90;;;;;;5093647;28;20020;-47
2022/01/13 05:55:32;;;;;;;37.17;23.80;;;2.90;99.90;;;;;;5093535;28;20035;-45
2022/01/13 05:57:58;;;;;;;40.17;23.15;;;3.20;99.90;;;;;;5093543;28;20085;-51
2022/01/13 06:00:24;;;;;;;38.10;23.15;;;3.10;99.90;;;;;;5093238;28;20475;-46
2022/01/13 06:02:51;;;;;;;38.97;24.23;;;3.00;99.90;;;;;;5094026;28;20020;-47
2022/01/13 06:05:18;;;;;;;42.25;24.95;;;3.10;99.90;;;;;;5093718;28;20104;-48
2022/01/13 06:07:44;;;;;;;34.72;22.02;;;3.00;99.90;;;;;;5093351;28;20020;-50
2022/01/13 06:10:14;;;;;;;39.83;23.63;;;3.00;99.90;;;;;;5093122;28;20028;-45
2022/01/13 06:12:39;;;;;;;43.65;22.25;;;2.90;99.90;;;;;;5093227;28;20020;-46
2022/01/13 06:15:08;;;;;;;40.33;23.80;;;2.90;99.90;;;;;;5093369;28;20016;-48
2022/01/13 06:17:35;;;;;;;36.53;23.38;;;3.00;99.90;;;;;;5093590;28;20024;-46
2022/01/13 06:20:01;;;;;;;40.67;23.60;;;3.00;99.90;;;;;;5092883;28;20399;-46
2022/01/13 06:22:26;;;;;;;39.42;24.45;;;3.00;99.90;;;;;;5093175;28;20027;-46
2022/01/13 06:24:52;;;;;;;42.22;23.90;;;3.00;99.90;;;;;;5092675;28;20120;-47
2022/01/13 06:27:18;;;;;;;37.85;23.40;;;3.00;99.90;;;;;;5093183;28;20073;-46
2022/01/13 06:29:44;;;;;;;37.90;24.27;;;3.00;99.90;;;;;;5092689;28;20036;-47
2022/01/13 06:32:09;;;;;;;38.45;23.27;;;3.00;99.90;;;;;;5092995;28;20046;-46
2022/01/13 06:34:35;;;;;;;37.53;23.73;;;2.90;99.90;;;;;;5092496;28;20107;-46
2022/01/13 06:37:00;;;;;;;38.47;22.45;;;2.90;99.90;;;;;;5092961;28;20031;-48
2022/01/13 06:39:26;;;;;;;34.83;22.48;;;3.00;99.90;;;;;;5092451;28;20024;-45
2022/01/13 06:41:51;;;;;;;36.75;21.73;;;2.90;99.90;;;;;;5092883;28;20521;-45
2022/01/13 06:44:17;;;;;;;34.85;21.17;;;3.00;99.90;;;;;;5092747;28;20024;-48
2022/01/13 06:46:42;;;;;;;31.30;20.73;;;2.90;99.90;;;;;;5092757;28;20205;-46
2022/01/13 06:49:08;;;;;;;34.20;21.27;;;2.80;99.90;;;;;;5092297;28;20032;-43
2022/01/13 06:51:34;;;;;;;35.90;20.73;;;2.80;99.90;;;;;;5074639;28;20501;-46
2022/01/13 06:53:59;;;;;;;36.65;21.95;;;2.70;99.90;;;;;;5092607;28;20044;-47
2022/01/13 06:56:26;;;;;;;39.45;23.92;;;2.80;99.90;;;;;;5093133;28;20113;-49
2022/01/13 06:58:53;;;;;;;41.47;24.85;;;2.80;99.90;;;;;;5093328;28;20036;-49
2022/01/13 07:01:21;;;;;;;41.53;23.33;;;2.80;99.90;;;;;;5092014;28;20051;-47
2022/01/13 07:03:47;;;;;;;40.95;24.40;;;2.80;99.90;;;;;;5092497;28;20549;-46
2022/01/13 07:06:12;;;;;;;40.42;24.13;;;2.80;99.90;;;;;;5092342;28;20068;-45
2022/01/13 07:08:38;;;;;;;37.97;24.90;;;2.80;99.90;;;;;;5092232;28;20038;-46
2022/01/13 07:11:04;;;;;;;40.05;25.05;;;2.80;99.90;;;;;;5091853;28;20028;-50
2022/01/13 07:13:31;;;;;;;42.63;25.70;;;2.70;99.90;;;;;;5092296;28;20027;-50
2022/01/13 07:15:58;;;;;;;44.08;25.02;;;2.70;99.90;;;;;;5092090;28;20027;-46
2022/01/13 07:18:24;;;;;;;44.63;25.83;;;2.80;99.90;;;;;;5092154;28;20020;-49
2022/01/13 07:20:49;;;;;;;43.17;24.73;;;3.10;99.90;;;;;;5092155;28;20024;-48
2022/01/13 07:25:44;;;;;;;43.70;25.52;;;3.10;99.90;;;;;;5047033;28;20091;-53
2022/01/13 07:28:10;;;;;;;44.30;27.40;;;3.10;99.90;;;;;;5051626;28;20021;-52
2022/01/13 07:30:36;;;;;;;44.50;27.05;;;3.10;99.90;;;;;;5051208;28;20029;-52
2022/01/13 07:33:02;;;;;;;44.05;25.17;;;3.10;99.90;;;;;;5033602;28;20028;-49
2022/01/13 07:35:27;;;;;;;41.88;25.40;;;3.10;99.90;;;;;;5033560;28;20166;-49
2022/01/13 07:37:53;;;;;;;44.55;25.80;;;3.10;99.90;;;;;;5033556;28;20480;-54
2022/01/13 07:40:19;;;;;;;37.83;22.90;;;3.10;99.90;;;;;;5033296;28;20493;-51
2022/01/13 07:42:46;;;;;;;45.70;26.85;;;3.10;99.90;;;;;;5051406;28;20035;-50
2022/01/13 07:45:14;;;;;;;38.50;23.80;;;3.10;99.90;;;;;;5051236;28;20424;-49
2022/01/13 07:47:40;;;;;;;38.03;22.98;;;3.10;99.90;;;;;;5033277;28;20033;-53
2022/01/13 07:50:08;;;;;;;36.75;22.33;;;3.10;99.90;;;;;;5051007;28;20032;-52
2022/01/13 07:52:34;;;;;;;43.10;23.67;;;3.20;99.90;;;;;;5051135;28;20122;-49
2022/01/13 07:54:59;;;;;;;36.90;22.63;;;3.10;99.90;;;;;;5033581;28;20059;-50
2022/01/13 07:57:25;;;;;;;40.05;22.88;;;3.10;99.90;;;;;;5051408;28;20488;-49
2022/01/13 07:59:52;;;;;;;37.45;23.10;;;3.10;99.90;;;;;;5051110;28;20392;-49
2022/01/13 08:02:18;;;;;;;36.03;23.05;;;3.10;99.90;;;;;;5051230;28;20040;-50
2022/01/13 08:04:44;;;;;;;37.72;23.17;;;3.10;99.90;;;;;;5051286;28;20029;-54
2022/01/13 08:07:09;;;;;;;34.67;23.10;;;3.00;99.90;;;;;;5051567;28;20033;-49
2022/01/13 08:09:35;;;;;;;32.35;20.40;;;3.00;99.90;;;;;;5050785;28;20049;-54
2022/01/13 08:12:00;;;;;;;30.17;20.92;;;3.00;99.90;;;;;;5051362;28;20029;-51
2022/01/13 08:14:26;;;;;;;25.98;19.02;;;3.00;99.90;;;;;;5051074;28;20373;-51
2022/01/13 08:16:56;;;;;;;26.15;17.58;;;3.10;99.90;;;;;;5051135;28;20025;-54
2022/01/13 08:22:06;;;;;;;25.25;16.38;;;3.00;99.90;;;;;;5051685;28;20087;-55
2022/01/13 08:24:31;;;;;;;28.05;17.33;;;3.00;99.90;;;;;;5051097;28;20032;-49
2022/01/13 08:26:57;;;;;;;23.38;16.40;;;3.00;99.90;;;;;;5034026;28;20025;-55
2022/01/13 08:29:22;;;;;;;22.35;15.15;;;3.00;99.90;;;;;;5053227;28;20032;-55
2022/01/13 08:31:48;;;;;;;20.15;14.20;;;3.00;99.90;;;;;;5052506;28;20029;-53
2022/01/13 08:34:15;;;;;;;20.48;13.77;;;3.10;99.90;;;;;;5052917;28;20452;-55
2022/01/13 08:36:42;;;;;;;23.27;15.07;;;3.10;99.90;;;;;;5052596;28;20388;-51
2022/01/13 08:39:08;;;;;;;22.60;14.27;;;3.00;99.90;;;;;;5033020;28;20029;-53
2022/01/13 08:41:33;;;;;;;24.60;15.90;;;3.10;99.90;;;;;;5050913;28;20036;-49
2022/01/13 08:43:59;;;;;;;18.70;13.25;;;3.10;99.90;;;;;;5050794;28;20055;-50
2022/01/13 08:46:25;;;;;;;18.80;12.90;;;3.30;99.90;;;;;;5051066;28;20029;-52
2022/01/13 08:48:52;;;;;;;18.88;13.80;;;3.20;99.90;;;;;;5051167;28;20032;-49
2022/01/13 08:51:18;;;;;;;19.85;13.52;;;3.30;99.90;;;;;;5033033;28;20029;-50
2022/01/13 08:53:45;;;;;;;19.75;13.95;;;3.30;99.90;;;;;;5051730;28;20014;-55
2022/01/13 08:56:11;;;;;;;25.75;15.38;;;3.40;99.90;;;;;;5051720;28;20094;-54
2022/01/13 08:58:37;;;;;;;20.13;14.30;;;3.40;99.90;;;;;;5055710;28;20017;-55
2022/01/13 09:01:03;;;;;;;26.40;16.30;;;3.20;99.90;;;;;;5053436;28;20025;-53
2022/01/13 09:03:28;;;;;;;24.92;16.05;;;3.20;99.90;;;;;;5054402;28;20021;-52
2022/01/13 09:05:54;;;;;;;23.58;13.50;;;3.20;99.90;;;;;;5054374;28;20025;-54
2022/01/13 09:08:19;;;;;;;20.23;12.40;;;3.20;99.90;;;;;;5054900;28;20036;-55
2022/01/13 09:10:45;;;;;;;21.92;13.40;;;3.20;99.90;;;;;;5053898;28;20033;-49
2022/01/13 09:13:17;;;;;;;21.35;14.48;;;3.30;99.90;;;;;;5054255;28;20021;-53
2022/01/13 09:15:51;;;;;;;18.02;12.30;;;3.20;99.90;;;;;;5053092;28;20462;-50
2022/01/13 09:18:29;;;;;;;22.08;15.00;;;3.00;99.90;;;;;;5053045;28;20027;-44
2022/01/13 09:20:55;;;;;;;22.35;15.95;;;3.00;99.90;;;;;;5031707;28;20086;-46
2022/01/13 09:23:21;;;;;;;21.27;15.05;;;3.10;99.90;;;;;;5053383;28;20358;-47
2022/01/13 09:25:46;;;;;;;21.90;14.38;;;3.10;99.90;;;;;;5035545;28;20028;-45
2022/01/13 09:28:13;;;;;;;23.55;15.02;;;3.00;99.90;;;;;;5053847;28;20292;-46
2022/01/13 09:30:39;;;;;;;21.13;14.48;;;3.20;99.90;;;;;;5053255;28;20033;-45
2022/01/13 09:33:05;;;;;;;24.17;15.45;;;3.20;99.90;;;;;;5054216;28;20599;-44
2022/01/13 09:35:31;;;;;;;21.73;15.57;;;3.20;99.90;;;;;;5052614;28;20029;-48
2022/01/13 09:37:57;;;;;;;22.52;15.77;;;3.10;99.90;;;;;;5035387;28;20027;-46
2022/01/13 09:40:22;;;;;;;24.52;16.10;;;3.20;99.90;;;;;;5053240;28;20035;-50
2022/01/13 09:42:48;;;;;;;40.78;25.50;;;3.20;99.90;;;;;;5053502;28;20033;-46
2022/01/13 09:45:16;;;;;;;22.70;15.50;;;3.20;99.90;;;;;;5052601;28;20489;-51
2022/01/13 09:47:43;;;;;;;23.10;14.05;;;3.30;99.90;;;;;;5053735;28;20032;-46
2022/01/13 09:50:12;;;;;;;28.10;16.88;;;3.20;99.90;;;;;;5053245;28;20029;-47
2022/01/13 09:52:38;;;;;;;26.02;17.65;;;3.20;99.90;;;;;;5053520;28;20424;-46
2022/01/13 09:55:06;;;;;;;23.92;16.90;;;3.10;99.90;;;;;;5035570;28;20393;-46
2022/01/13 09:57:31;;;;;;;25.70;17.05;;;3.30;99.90;;;;;;5053462;28;20022;-51
2022/01/13 09:59:58;;;;;;;26.05;16.67;;;3.20;99.90;;;;;;5034932;28;20029;-50
2022/01/13 10:02:24;;;;;;;27.73;17.92;;;3.10;99.90;;;;;;5053404;28;20056;-48
2022/01/13 10:04:55;;;;;;;22.38;15.43;;;3.30;99.90;;;;;;5053058;28;20108;-48
2022/01/13 10:07:42;;;;;;;24.58;16.80;;;3.20;99.90;;;;;;5035193;28;20028;-46
2022/01/13 10:10:15;;;;;;;21.90;13.70;;;3.20;99.90;;;;;;5052840;28;20060;-47
2022/01/13 10:12:43;;;;;;;25.17;15.07;;;3.40;99.90;;;;;;5053265;28;20429;-48
2022/01/13 10:18:02;;;;;;;20.98;13.75;;;3.20;99.90;;;;;;5053305;28;20033;-50
2022/01/13 10:20:28;;;;;;;19.35;14.02;;;3.20;99.90;;;;;;5052563;28;20104;-49
2022/01/13 10:22:54;;;;;;;25.77;14.98;;;3.10;99.90;;;;;;5052660;28;20156;-47
2022/01/13 10:25:29;;;;;;;23.73;15.30;;;3.10;99.90;;;;;;5052386;28;20430;-51
2022/01/13 10:27:56;;;;;;;20.88;14.52;;;3.20;99.90;;;;;;5052738;28;20396;-49
2022/01/13 10:30:25;;;;;;;22.45;15.57;;;3.10;99.90;;;;;;5052168;28;20025;-49
2022/01/13 10:32:52;;;;;;;23.08;15.27;;;3.10;99.90;;;;;;5052507;28;20021;-50
2022/01/13 10:35:20;;;;;;;29.38;17.83;;;3.10;99.90;;;;;;5052125;28;20036;-47
2022/01/13 10:37:56;;;;;;;25.13;16.33;;;3.30;99.90;;;;;;5052527;28;20139;-46
2022/01/13 10:40:30;;;;;;;23.38;15.75;;;3.40;99.90;;;;;;5033969;28;20017;-50
2022/01/13 10:45:28;;;;;;;21.13;15.55;;;3.20;99.90;;;;;;5051623;28;20392;-45
2022/01/13 10:47:58;;;;;;;21.80;15.45;;;3.10;99.90;;;;;;5051823;28;20043;-45
2022/01/13 10:50:39;;;;;;;33.55;14.77;;;3.30;99.90;;;;;;5052032;28;20412;-48
2022/01/13 10:53:12;;;;;;;24.38;14.85;;;3.30;99.90;;;;;;5052222;28;20033;-53
2022/01/13 10:55:48;;;;;;;22.30;15.20;;;3.20;99.90;;;;;;5052309;28;20041;-47
2022/01/13 10:58:16;;;;;;;23.88;15.88;;;3.10;99.90;;;;;;5051570;28;20028;-51
2022/01/13 11:00:43;;;;;;;20.92;15.30;;;3.10;99.90;;;;;;5033280;28;20054;-50
2022/01/13 11:03:16;;;;;;;22.17;15.68;;;3.10;99.90;;;;;;5051498;28;20598;-48
2022/01/13 11:05:49;;;;;;;28.20;16.60;;;3.20;99.90;;;;;;5033999;28;20060;-50
2022/01/13 11:08:28;;;;;;;21.10;14.63;;;3.30;99.90;;;;;;5051704;28;20031;-46
2022/01/13 11:10:57;;;;;;;23.13;15.32;;;3.20;99.90;;;;;;5050830;28;20033;-49
2022/01/13 11:13:24;;;;;;;22.63;16.38;;;3.20;99.90;;;;;;5051950;28;20384;-46
2022/01/13 11:15:55;;;;;;;26.15;16.48;;;3.20;99.90;;;;;;5051910;28;20017;-49
2022/01/13 11:18:26;;;;;;;23.42;16.25;;;3.30;99.90;;;;;;5051777;28;20025;-46
2022/01/13 11:20:53;;;;;;;22.83;16.30;;;3.40;99.90;;;;;;5049852;28;20365;-47
2022/01/13 11:23:19;;;;;;;19.35;14.98;;;3.40;99.90;;;;;;5051616;28;20091;-46
2022/01/13 11:25:47;;;;;;;31.02;17.08;;;3.40;99.90;;;;;;5051469;28;20134;-45
2022/01/13 11:28:13;;;;;;;26.50;15.63;;;3.50;99.90;;;;;;5051393;28;20025;-49
2022/01/13 11:30:40;;;;;;;21.73;15.43;;;3.50;99.90;;;;;;5031056;28;20025;-50
2022/01/13 11:33:05;;;;;;;25.27;15.60;;;3.60;99.90;;;;;;5050837;28;20103;-48
2022/01/13 11:35:35;;;;;;;20.65;14.82;;;3.70;99.90;;;;;;5050594;28;20057;-48
2022/01/13 11:38:03;;;;;;;28.63;15.20;;;3.70;99.90;;;;;;5033360;28;20512;-49
2022/01/13 11:40:30;;;;;;;24.70;16.35;;;3.70;99.90;;;;;;5050513;28;20029;-52
2022/01/13 11:42:58;;;;;;;28.30;18.67;;;3.50;99.90;;;;;;5033163;28;20031;-50
2022/01/13 11:45:25;;;;;;;21.15;15.25;;;3.60;99.90;;;;;;5050671;28;20025;-50
2022/01/13 11:48:15;;;;;;;24.48;14.93;;;3.60;99.90;;;;;;5049505;28;20021;-50
2022/01/13 11:50:46;;;;;;;20.63;14.75;;;3.50;99.90;;;;;;5048245;28;20589;-50
2022/01/13 11:53:20;;;;;;;21.27;15.55;;;3.50;99.90;;;;;;5050406;28;20043;-49
2022/01/13 11:55:57;;;;;;;23.23;16.30;;;3.40;99.90;;;;;;5049784;28;20017;-49
2022/01/13 11:58:28;;;;;;;22.00;15.63;;;3.50;99.90;;;;;;5051404;28;20500;-52
2022/01/13 12:00:54;;;;;;;25.55;16.50;;;3.40;99.90;;;;;;5050809;28;20043;-50
2022/01/13 12:03:35;;;;;;;25.40;16.92;;;3.50;99.90;;;;;;5051414;28;20037;-52
2022/01/13 12:06:03;;;;;;;23.60;16.70;;;3.60;99.90;;;;;;5044624;28;20048;-52
2022/01/13 12:08:45;;;;;;;24.85;15.65;;;3.60;99.90;;;;;;5051048;28;20029;-54
2022/01/13 12:11:46;;;;;;;20.13;15.68;;;3.70;99.90;;;;;;5049382;28;20029;-59
2022/01/13 12:14:24;;;;;;;22.67;15.13;;;3.50;99.90;;;;;;5050208;28;20021;-58
2022/01/13 12:16:56;;;;;;;23.70;16.42;;;3.50;99.90;;;;;;5037088;28;20100;-58
2022/01/13 12:19:39;;;;;;;25.80;16.05;;;3.40;99.90;;;;;;5051163;28;20066;-54
2022/01/13 12:22:12;;;;;;;26.55;17.33;;;3.40;99.90;;;;;;5032870;28;20385;-55
2022/01/13 12:24:56;;;;;;;22.10;14.05;;;3.40;99.90;;;;;;5050869;28;20504;-55
2022/01/13 12:27:43;;;;;;;25.65;16.27;;;3.40;99.90;;;;;;5051117;28;20024;-52
2022/01/13 12:30:10;;;;;;;20.83;14.45;;;3.50;99.90;;;;;;5050409;28;20055;-52
2022/01/13 12:32:56;;;;;;;21.75;13.93;;;3.40;99.90;;;;;;5053095;28;20029;-51
2022/01/13 12:35:22;;;;;;;22.63;15.00;;;3.20;99.90;;;;;;5054179;28;20033;-60
2022/01/13 12:38:03;;;;;;;20.90;15.05;;;3.10;99.90;;;;;;5054566;28;20025;-57
2022/01/13 12:40:46;;;;;;;23.77;15.85;;;3.10;99.90;;;;;;5054210;28;20090;-53
2022/01/13 12:46:10;;;;;;;20.83;14.80;;;3.50;99.90;;;;;;5051805;28;20281;-50
2022/01/13 12:48:37;;;;;;;26.90;16.38;;;3.40;99.90;;;;;;5054707;28;20029;-54
2022/01/13 12:51:04;;;;;;;27.33;16.70;;;3.40;99.90;;;;;;5053972;28;20095;-52
2022/01/13 12:53:35;;;;;;;25.92;15.20;;;3.30;99.90;;;;;;5054456;28;20037;-51
2022/01/13 12:56:13;;;;;;;23.60;16.73;;;3.20;99.90;;;;;;5054651;28;20021;-50
2022/01/13 12:58:48;;;;;;;26.23;16.30;;;3.20;99.90;;;;;;5053578;28;20098;-49
2022/01/13 13:01:14;;;;;;;26.23;15.50;;;3.10;99.90;;;;;;5048104;28;20557;-55
2022/01/13 13:03:41;;;;;;;22.23;16.80;;;3.10;99.90;;;;;;5053190;28;20393;-56
2022/01/13 13:06:15;;;;;;;26.67;18.33;;;3.10;99.90;;;;;;5038719;28;20028;-57
2022/01/13 13:08:44;;;;;;;24.48;16.15;;;3.10;99.90;;;;;;5054231;28;20032;-51
2022/01/13 13:11:09;;;;;;;21.35;15.45;;;3.10;99.90;;;;;;5053398;28;20402;-50
2022/01/13 13:13:47;;;;;;;26.40;15.95;;;3.10;99.90;;;;;;5054136;28;20055;-51
2022/01/13 13:16:13;;;;;;;21.63;15.35;;;3.40;99.90;;;;;;5054235;28;20028;-51